sensor_id;sensor_type;location;lat;lon;timestamp;pressure;altitude;pressure_sealevel;temperature;humidity
40864;BME280;26582;47.524;19.012;2023-11-19T00:02:26;99461.28;;;4.22;69.59
40864;BME280;26582;47.524;19.012;2023-11-19T00:04:53;99448.41;;;4.46;69.69
40864;BME280;26582;47.524;19.012;2023-11-19T00:07:19;99455.94;;;4.38;69.51
40864;BME280;26582;47.524;19.012;2023-11-19T00:09:46;99452.06;;;4.58;69.27
40864;BME280;26582;47.524;19.012;2023-11-19T00:12:13;99456.66;;;4.68;68.56
40864;BME280;26582;47.524;19.012;2023-11-19T00:14:39;99447.13;;;4.80;68.65
40864;BME280;26582;47.524;19.012;2023-11-19T00:17:06;99448.47;;;4.73;68.15
40864;BME280;26582;47.524;19.012;2023-11-19T00:19:34;99454.13;;;4.53;68.65
40864;BME280;26582;47.524;19.012;2023-11-19T00:22:01;99450.47;;;4.27;69.76
40864;BME280;26582;47.524;19.012;2023-11-19T00:24:29;99459.59;;;4.35;69.12
40864;BME280;26582;47.524;19.012;2023-11-19T00:26:56;99446.41;;;3.92;70.84
40864;BME280;26582;47.524;19.012;2023-11-19T00:29:22;99456.50;;;4.14;70.23
40864;BME280;26582;47.524;19.012;2023-11-19T00:31:50;99464.78;;;4.37;69.58
40864;BME280;26582;47.524;19.012;2023-11-19T00:34:17;99457.44;;;4.13;70.66
40864;BME280;26582;47.524;19.012;2023-11-19T00:36:48;99462.50;;;4.02;71.44
40864;BME280;26582;47.524;19.012;2023-11-19T00:39:15;99454.53;;;4.18;70.32
40864;BME280;26582;47.524;19.012;2023-11-19T00:41:43;99454.69;;;4.43;70.08
40864;BME280;26582;47.524;19.012;2023-11-19T00:44:11;99455.84;;;4.39;69.26
40864;BME280;26582;47.524;19.012;2023-11-19T00:46:38;99460.91;;;4.57;68.73
40864;BME280;26582;47.524;19.012;2023-11-19T00:49:05;99461.41;;;4.35;69.39
40864;BME280;26582;47.524;19.012;2023-11-19T00:51:31;99441.91;;;4.37;69.18
40864;BME280;26582;47.524;19.012;2023-11-19T00:54:00;99450.53;;;4.54;68.55
40864;BME280;26582;47.524;19.012;2023-11-19T00:56:27;99438.88;;;4.72;68.08
40864;BME280;26582;47.524;19.012;2023-11-19T00:58:54;99441.91;;;4.52;68.41
40864;BME280;26582;47.524;19.012;2023-11-19T01:01:21;99445.88;;;4.30;68.97
40864;BME280;26582;47.524;19.012;2023-11-19T01:03:48;99428.72;;;4.37;69.03
40864;BME280;26582;47.524;19.012;2023-11-19T01:06:14;99432.78;;;4.29;69.65
40864;BME280;26582;47.524;19.012;2023-11-19T01:08:42;99444.34;;;4.12;69.93
40864;BME280;26582;47.524;19.012;2023-11-19T01:11:20;99444.75;;;4.34;69.50
40864;BME280;26582;47.524;19.012;2023-11-19T01:13:47;99456.59;;;4.27;69.42
40864;BME280;26582;47.524;19.012;2023-11-19T01:16:14;99455.78;;;3.97;70.01
40864;BME280;26582;47.524;19.012;2023-11-19T01:18:40;99445.75;;;4.03;70.38
40864;BME280;26582;47.524;19.012;2023-11-19T01:21:07;99451.66;;;3.92;70.83
40864;BME280;26582;47.524;19.012;2023-11-19T01:23:34;99437.66;;;4.21;70.13
40864;BME280;26582;47.524;19.012;2023-11-19T01:26:01;99440.41;;;4.33;69.79
40864;BME280;26582;47.524;19.012;2023-11-19T01:28:29;99437.84;;;4.46;70.43
40864;BME280;26582;47.524;19.012;2023-11-19T01:30:56;99436.44;;;4.55;69.35
40864;BME280;26582;47.524;19.012;2023-11-19T01:33:23;99433.88;;;4.67;69.14
40864;BME280;26582;47.524;19.012;2023-11-19T01:35:50;99435.09;;;4.76;68.53
40864;BME280;26582;47.524;19.012;2023-11-19T01:38:17;99432.06;;;4.82;68.70
40864;BME280;26582;47.524;19.012;2023-11-19T01:40:43;99432.78;;;4.84;68.89
40864;BME280;26582;47.524;19.012;2023-11-19T01:43:10;99434.47;;;4.85;69.65
40864;BME280;26582;47.524;19.012;2023-11-19T01:45:40;99430.09;;;4.71;68.45
40864;BME280;26582;47.524;19.012;2023-11-19T01:48:07;99433.19;;;4.78;68.05
40864;BME280;26582;47.524;19.012;2023-11-19T01:50:36;99419.91;;;4.80;68.64
40864;BME280;26582;47.524;19.012;2023-11-19T01:53:03;99413.38;;;4.85;67.88
40864;BME280;26582;47.524;19.012;2023-11-19T01:55:30;99406.88;;;4.91;68.00
40864;BME280;26582;47.524;19.012;2023-11-19T01:57:59;99402.16;;;4.96;67.82
40864;BME280;26582;47.524;19.012;2023-11-19T02:00:27;99401.69;;;4.89;67.90
40864;BME280;26582;47.524;19.012;2023-11-19T02:02:55;99393.78;;;4.89;67.55
40864;BME280;26582;47.524;19.012;2023-11-19T02:05:22;99404.25;;;4.91;66.95
40864;BME280;26582;47.524;19.012;2023-11-19T02:07:49;99393.72;;;4.77;67.31
40864;BME280;26582;47.524;19.012;2023-11-19T02:10:16;99386.53;;;4.79;67.96
40864;BME280;26582;47.524;19.012;2023-11-19T02:12:44;99390.97;;;4.78;68.56
40864;BME280;26582;47.524;19.012;2023-11-19T02:15:12;99384.69;;;4.66;67.83
40864;BME280;26582;47.524;19.012;2023-11-19T02:17:39;99382.19;;;4.36;68.67
40864;BME280;26582;47.524;19.012;2023-11-19T02:20:08;99402.34;;;4.52;68.08
40864;BME280;26582;47.524;19.012;2023-11-19T02:22:37;99392.16;;;4.60;68.21
40864;BME280;26582;47.524;19.012;2023-11-19T02:25:07;99384.16;;;4.61;68.24
40864;BME280;26582;47.524;19.012;2023-11-19T02:27:54;99382.72;;;4.70;68.85
40864;BME280;26582;47.524;19.012;2023-11-19T02:30:22;99371.41;;;4.68;68.47
40864;BME280;26582;47.524;19.012;2023-11-19T02:32:52;99381.38;;;4.77;67.62
40864;BME280;26582;47.524;19.012;2023-11-19T02:35:19;99393.09;;;4.59;67.87
40864;BME280;26582;47.524;19.012;2023-11-19T02:37:47;99389.88;;;4.54;68.80
40864;BME280;26582;47.524;19.012;2023-11-19T02:40:14;99392.16;;;4.60;68.26
40864;BME280;26582;47.524;19.012;2023-11-19T02:42:41;99375.00;;;4.67;67.90
40864;BME280;26582;47.524;19.012;2023-11-19T02:45:09;99363.03;;;4.61;67.62
40864;BME280;26582;47.524;19.012;2023-11-19T02:47:40;99368.78;;;4.54;68.80
40864;BME280;26582;47.524;19.012;2023-11-19T02:50:09;99359.19;;;4.53;68.70
40864;BME280;26582;47.524;19.012;2023-11-19T02:52:40;99364.28;;;4.56;67.81
40864;BME280;26582;47.524;19.012;2023-11-19T02:55:07;99364.03;;;4.46;68.19
40864;BME280;26582;47.524;19.012;2023-11-19T02:57:38;99343.94;;;4.43;68.33
40864;BME280;26582;47.524;19.012;2023-11-19T03:00:08;99356.38;;;4.56;68.24
40864;BME280;26582;47.524;19.012;2023-11-19T03:02:39;99354.47;;;4.58;68.14
40864;BME280;26582;47.524;19.012;2023-11-19T03:05:10;99316.41;;;4.35;68.56
40864;BME280;26582;47.524;19.012;2023-11-19T03:07:37;99344.88;;;4.57;69.06
40864;BME280;26582;47.524;19.012;2023-11-19T03:10:04;99353.47;;;4.46;68.64
40864;BME280;26582;47.524;19.012;2023-11-19T03:12:31;99352.22;;;4.52;68.82
40864;BME280;26582;47.524;19.012;2023-11-19T03:14:58;99343.03;;;4.44;68.99
40864;BME280;26582;47.524;19.012;2023-11-19T03:17:26;99333.31;;;4.45;69.49
40864;BME280;26582;47.524;19.012;2023-11-19T03:19:53;99332.09;;;4.51;69.54
40864;BME280;26582;47.524;19.012;2023-11-19T03:22:19;99331.31;;;4.49;68.75
40864;BME280;26582;47.524;19.012;2023-11-19T03:24:46;99333.84;;;4.23;69.34
40864;BME280;26582;47.524;19.012;2023-11-19T03:27:13;99328.91;;;4.31;69.60
40864;BME280;26582;47.524;19.012;2023-11-19T03:29:39;99325.16;;;4.21;70.22
40864;BME280;26582;47.524;19.012;2023-11-19T03:32:06;99323.31;;;4.09;70.21
40864;BME280;26582;47.524;19.012;2023-11-19T03:34:34;99335.16;;;4.16;70.35
40864;BME280;26582;47.524;19.012;2023-11-19T03:37:01;99320.16;;;4.31;70.14
40864;BME280;26582;47.524;19.012;2023-11-19T03:39:28;99304.88;;;4.50;68.53
40864;BME280;26582;47.524;19.012;2023-11-19T03:41:55;99300.84;;;4.44;68.41
40864;BME280;26582;47.524;19.012;2023-11-19T03:44:21;99302.38;;;4.34;68.91
40864;BME280;26582;47.524;19.012;2023-11-19T03:46:48;99298.63;;;4.24;69.56
40864;BME280;26582;47.524;19.012;2023-11-19T03:49:15;99284.97;;;4.17;70.27
40864;BME280;26582;47.524;19.012;2023-11-19T03:51:43;99286.22;;;4.12;70.50
40864;BME280;26582;47.524;19.012;2023-11-19T03:54:09;99275.03;;;4.08;70.90
40864;BME280;26582;47.524;19.012;2023-11-19T03:56:37;99259.97;;;3.96;71.47
40864;BME280;26582;47.524;19.012;2023-11-19T03:59:03;99281.31;;;4.06;71.46
40864;BME280;26582;47.524;19.012;2023-11-19T04:01:30;99274.47;;;4.03;71.79
40864;BME280;26582;47.524;19.012;2023-11-19T04:03:57;99276.03;;;4.20;71.26
40864;BME280;26582;47.524;19.012;2023-11-19T04:06:25;99274.34;;;4.19;71.47
40864;BME280;26582;47.524;19.012;2023-11-19T04:08:53;99257.97;;;4.14;71.30
40864;BME280;26582;47.524;19.012;2023-11-19T04:11:20;99251.66;;;4.16;70.81
40864;BME280;26582;47.524;19.012;2023-11-19T04:13:46;99246.13;;;4.07;71.21
40864;BME280;26582;47.524;19.012;2023-11-19T04:16:14;99255.25;;;4.15;70.93
40864;BME280;26582;47.524;19.012;2023-11-19T04:18:40;99267.31;;;3.91;71.77
40864;BME280;26582;47.524;19.012;2023-11-19T04:21:07;99267.88;;;3.96;71.26
40864;BME280;26582;47.524;19.012;2023-11-19T04:23:34;99255.94;;;4.05;71.01
40864;BME280;26582;47.524;19.012;2023-11-19T04:26:04;99243.47;;;4.21;70.98
40864;BME280;26582;47.524;19.012;2023-11-19T04:28:31;99243.81;;;4.29;70.54
40864;BME280;26582;47.524;19.012;2023-11-19T04:30:58;99249.66;;;4.34;70.13
40864;BME280;26582;47.524;19.012;2023-11-19T04:33:25;99250.19;;;4.39;69.70
40864;BME280;26582;47.524;19.012;2023-11-19T04:35:51;99242.81;;;4.17;70.41
40864;BME280;26582;47.524;19.012;2023-11-19T04:38:18;99241.34;;;4.13;70.65
40864;BME280;26582;47.524;19.012;2023-11-19T04:40:45;99248.19;;;4.16;70.66
40864;BME280;26582;47.524;19.012;2023-11-19T04:43:13;99271.72;;;4.19;71.32
40864;BME280;26582;47.524;19.012;2023-11-19T04:45:41;99263.25;;;4.14;70.68
40864;BME280;26582;47.524;19.012;2023-11-19T04:48:07;99265.50;;;4.20;70.73
40864;BME280;26582;47.524;19.012;2023-11-19T04:50:35;99279.97;;;4.27;71.13
40864;BME280;26582;47.524;19.012;2023-11-19T04:53:01;99286.28;;;4.25;71.32
40864;BME280;26582;47.524;19.012;2023-11-19T04:55:28;99287.03;;;4.27;70.86
40864;BME280;26582;47.524;19.012;2023-11-19T04:57:55;99291.06;;;4.32;70.91
40864;BME280;26582;47.524;19.012;2023-11-19T05:00:23;99274.50;;;4.30;70.78
40864;BME280;26582;47.524;19.012;2023-11-19T05:02:50;99268.00;;;4.36;70.76
40864;BME280;26582;47.524;19.012;2023-11-19T05:05:16;99263.16;;;4.42;70.47
40864;BME280;26582;47.524;19.012;2023-11-19T05:07:43;99253.25;;;4.33;71.37
40864;BME280;26582;47.524;19.012;2023-11-19T05:10:10;99266.34;;;4.48;70.89
40864;BME280;26582;47.524;19.012;2023-11-19T05:12:37;99269.25;;;4.16;72.24
40864;BME280;26582;47.524;19.012;2023-11-19T05:15:05;99282.25;;;4.19;72.05
40864;BME280;26582;47.524;19.012;2023-11-19T05:17:33;99281.28;;;4.34;71.90
40864;BME280;26582;47.524;19.012;2023-11-19T05:20:00;99291.84;;;4.34;71.76
40864;BME280;26582;47.524;19.012;2023-11-19T05:22:27;99280.66;;;4.43;71.96
40864;BME280;26582;47.524;19.012;2023-11-19T05:24:53;99269.59;;;3.97;73.43
40864;BME280;26582;47.524;19.012;2023-11-19T05:27:21;99266.28;;;4.08;73.08
40864;BME280;26582;47.524;19.012;2023-11-19T05:29:49;99269.94;;;4.05;73.28
40864;BME280;26582;47.524;19.012;2023-11-19T05:32:16;99273.03;;;4.12;72.66
40864;BME280;26582;47.524;19.012;2023-11-19T05:34:43;99260.72;;;4.12;72.59
40864;BME280;26582;47.524;19.012;2023-11-19T05:37:10;99257.09;;;4.28;72.09
40864;BME280;26582;47.524;19.012;2023-11-19T05:39:37;99252.47;;;4.31;72.92
40864;BME280;26582;47.524;19.012;2023-11-19T05:42:04;99252.00;;;4.39;72.72
40864;BME280;26582;47.524;19.012;2023-11-19T05:44:31;99259.38;;;4.47;71.69
40864;BME280;26582;47.524;19.012;2023-11-19T05:46:57;99255.91;;;4.46;72.15
40864;BME280;26582;47.524;19.012;2023-11-19T05:49:25;99265.88;;;4.55;71.67
40864;BME280;26582;47.524;19.012;2023-11-19T05:51:53;99273.09;;;4.39;71.54
40864;BME280;26582;47.524;19.012;2023-11-19T05:54:21;99265.31;;;4.50;71.16
40864;BME280;26582;47.524;19.012;2023-11-19T05:56:48;99258.56;;;4.59;71.33
40864;BME280;26582;47.524;19.012;2023-11-19T05:59:15;99254.63;;;4.39;71.46
40864;BME280;26582;47.524;19.012;2023-11-19T06:01:43;99258.03;;;4.54;70.96
40864;BME280;26582;47.524;19.012;2023-11-19T06:04:09;99264.63;;;4.61;70.65
40864;BME280;26582;47.524;19.012;2023-11-19T06:06:36;99284.94;;;4.59;71.32
40864;BME280;26582;47.524;19.012;2023-11-19T06:09:04;99256.28;;;4.54;71.07
40864;BME280;26582;47.524;19.012;2023-11-19T06:11:32;99252.28;;;4.61;70.84
40864;BME280;26582;47.524;19.012;2023-11-19T06:13:59;99244.25;;;4.63;70.99
40864;BME280;26582;47.524;19.012;2023-11-19T06:16:26;99216.78;;;4.53;71.07
40864;BME280;26582;47.524;19.012;2023-11-19T06:18:52;99233.28;;;4.69;71.27
40864;BME280;26582;47.524;19.012;2023-11-19T06:21:19;99244.50;;;4.72;71.69
40864;BME280;26582;47.524;19.012;2023-11-19T06:23:46;99246.91;;;4.36;71.45
40864;BME280;26582;47.524;19.012;2023-11-19T06:26:15;99230.81;;;4.53;71.46
40864;BME280;26582;47.524;19.012;2023-11-19T06:28:42;99227.16;;;4.56;71.37
40864;BME280;26582;47.524;19.012;2023-11-19T06:31:11;99226.25;;;4.42;72.30
40864;BME280;26582;47.524;19.012;2023-11-19T06:33:41;99225.78;;;4.23;73.22
40864;BME280;26582;47.524;19.012;2023-11-19T06:36:08;99223.31;;;4.20;73.04
40864;BME280;26582;47.524;19.012;2023-11-19T06:38:35;99231.78;;;4.25;71.61
40864;BME280;26582;47.524;19.012;2023-11-19T06:41:07;99228.50;;;4.22;71.89
40864;BME280;26582;47.524;19.012;2023-11-19T06:43:35;99220.03;;;4.43;71.72
40864;BME280;26582;47.524;19.012;2023-11-19T06:46:02;99201.81;;;4.53;71.24
40864;BME280;26582;47.524;19.012;2023-11-19T06:48:31;99208.81;;;4.67;70.42
40864;BME280;26582;47.524;19.012;2023-11-19T06:50:59;99206.91;;;4.69;71.67
40864;BME280;26582;47.524;19.012;2023-11-19T06:53:26;99223.56;;;4.57;72.15
40864;BME280;26582;47.524;19.012;2023-11-19T06:55:53;99211.66;;;4.64;71.64
40864;BME280;26582;47.524;19.012;2023-11-19T06:58:20;99212.09;;;4.31;72.79
40864;BME280;26582;47.524;19.012;2023-11-19T07:00:48;99211.72;;;3.96;73.35
40864;BME280;26582;47.524;19.012;2023-11-19T07:03:16;99208.78;;;4.27;71.94
40864;BME280;26582;47.524;19.012;2023-11-19T07:05:43;99218.97;;;4.33;71.78
40864;BME280;26582;47.524;19.012;2023-11-19T07:08:10;99218.75;;;4.36;71.79
40864;BME280;26582;47.524;19.012;2023-11-19T07:10:36;99217.78;;;4.37;71.84
40864;BME280;26582;47.524;19.012;2023-11-19T07:13:04;99210.91;;;4.62;70.81
40864;BME280;26582;47.524;19.012;2023-11-19T07:15:31;99225.97;;;4.20;73.26
40864;BME280;26582;47.524;19.012;2023-11-19T07:17:59;99216.09;;;4.36;72.87
40864;BME280;26582;47.524;19.012;2023-11-19T07:20:26;99209.66;;;4.55;70.77
40864;BME280;26582;47.524;19.012;2023-11-19T07:22:53;99226.72;;;4.49;71.21
40864;BME280;26582;47.524;19.012;2023-11-19T07:25:22;99229.34;;;4.49;72.12
40864;BME280;26582;47.524;19.012;2023-11-19T07:27:49;99221.69;;;4.32;72.73
40864;BME280;26582;47.524;19.012;2023-11-19T07:30:15;99226.25;;;4.42;71.56
40864;BME280;26582;47.524;19.012;2023-11-19T07:32:43;99218.03;;;4.87;69.06
40864;BME280;26582;47.524;19.012;2023-11-19T07:35:11;99213.19;;;4.81;69.09
40864;BME280;26582;47.524;19.012;2023-11-19T07:37:38;99223.63;;;4.42;71.70
40864;BME280;26582;47.524;19.012;2023-11-19T07:40:06;99229.03;;;4.27;72.50
40864;BME280;26582;47.524;19.012;2023-11-19T07:42:32;99219.59;;;4.10;73.53
40864;BME280;26582;47.524;19.012;2023-11-19T07:44:59;99234.53;;;4.51;71.42
40864;BME280;26582;47.524;19.012;2023-11-19T07:47:26;99232.84;;;4.62;71.39
40864;BME280;26582;47.524;19.012;2023-11-19T07:49:54;99228.56;;;4.74;71.83
40864;BME280;26582;47.524;19.012;2023-11-19T07:52:22;99214.22;;;4.78;71.42
40864;BME280;26582;47.524;19.012;2023-11-19T07:54:49;99227.03;;;4.97;70.54
40864;BME280;26582;47.524;19.012;2023-11-19T07:57:15;99220.50;;;5.03;70.08
40864;BME280;26582;47.524;19.012;2023-11-19T07:59:42;99219.88;;;5.12;70.58
40864;BME280;26582;47.524;19.012;2023-11-19T08:02:09;99205.06;;;5.09;70.52
40864;BME280;26582;47.524;19.012;2023-11-19T08:04:35;99191.75;;;4.85;70.76
40864;BME280;26582;47.524;19.012;2023-11-19T08:07:05;99199.16;;;4.93;70.77
40864;BME280;26582;47.524;19.012;2023-11-19T08:09:33;99192.00;;;5.08;69.93
40864;BME280;26582;47.524;19.012;2023-11-19T08:11:59;99178.56;;;4.98;70.44
40864;BME280;26582;47.524;19.012;2023-11-19T08:14:26;99132.41;;;4.40;72.18
40864;BME280;26582;47.524;19.012;2023-11-19T08:16:53;99168.41;;;4.79;70.72
40864;BME280;26582;47.524;19.012;2023-11-19T08:19:20;99155.22;;;4.79;70.36
40864;BME280;26582;47.524;19.012;2023-11-19T08:21:46;99144.25;;;4.85;70.51
40864;BME280;26582;47.524;19.012;2023-11-19T08:24:13;99121.13;;;4.51;71.96
40864;BME280;26582;47.524;19.012;2023-11-19T08:26:41;99096.78;;;4.60;71.21
40864;BME280;26582;47.524;19.012;2023-11-19T08:29:08;99124.31;;;4.16;73.28
40864;BME280;26582;47.524;19.012;2023-11-19T08:31:34;99143.56;;;4.43;72.04
40864;BME280;26582;47.524;19.012;2023-11-19T08:34:01;99160.91;;;4.60;72.10
40864;BME280;26582;47.524;19.012;2023-11-19T08:36:28;99165.41;;;4.45;72.66
40864;BME280;26582;47.524;19.012;2023-11-19T08:38:57;99145.19;;;4.59;71.92
40864;BME280;26582;47.524;19.012;2023-11-19T08:41:26;99137.03;;;4.36;71.99
40864;BME280;26582;47.524;19.012;2023-11-19T08:43:55;99129.94;;;4.24;74.11
40864;BME280;26582;47.524;19.012;2023-11-19T08:46:21;99134.25;;;4.25;73.73
40864;BME280;26582;47.524;19.012;2023-11-19T08:48:48;99117.00;;;4.34;72.54
40864;BME280;26582;47.524;19.012;2023-11-19T08:51:15;99144.25;;;4.20;73.51
40864;BME280;26582;47.524;19.012;2023-11-19T08:53:41;99160.34;;;4.03;73.98
40864;BME280;26582;47.524;19.012;2023-11-19T08:56:08;99140.19;;;4.41;73.81
40864;BME280;26582;47.524;19.012;2023-11-19T08:58:35;99123.88;;;4.62;72.28
40864;BME280;26582;47.524;19.012;2023-11-19T09:01:04;99148.06;;;4.81;71.86
40864;BME280;26582;47.524;19.012;2023-11-19T09:03:31;99146.78;;;4.74;72.12
40864;BME280;26582;47.524;19.012;2023-11-19T09:05:58;99158.16;;;4.62;71.90
40864;BME280;26582;47.524;19.012;2023-11-19T09:08:24;99153.91;;;4.47;71.63
40864;BME280;26582;47.524;19.012;2023-11-19T09:10:51;99153.84;;;4.61;71.55
40864;BME280;26582;47.524;19.012;2023-11-19T09:13:18;99154.34;;;4.53;73.33
40864;BME280;26582;47.524;19.012;2023-11-19T09:15:44;99165.34;;;4.72;73.09
40864;BME280;26582;47.524;19.012;2023-11-19T09:18:12;99165.16;;;4.88;71.35
40864;BME280;26582;47.524;19.012;2023-11-19T09:20:39;99148.16;;;4.67;72.48
40864;BME280;26582;47.524;19.012;2023-11-19T09:23:06;99152.28;;;4.96;71.74
40864;BME280;26582;47.524;19.012;2023-11-19T09:25:34;99154.59;;;5.14;72.19
40864;BME280;26582;47.524;19.012;2023-11-19T09:28:01;99164.09;;;5.16;71.47
40864;BME280;26582;47.524;19.012;2023-11-19T09:30:27;99151.44;;;5.09;70.67
40864;BME280;26582;47.524;19.012;2023-11-19T09:32:54;99162.97;;;5.08;71.48
40864;BME280;26582;47.524;19.012;2023-11-19T09:35:22;99162.09;;;4.94;72.67
40864;BME280;26582;47.524;19.012;2023-11-19T09:37:49;99142.91;;;4.92;73.38
40864;BME280;26582;47.524;19.012;2023-11-19T09:40:16;99153.72;;;4.62;73.80
40864;BME280;26582;47.524;19.012;2023-11-19T09:42:44;99138.75;;;4.63;73.67
40864;BME280;26582;47.524;19.012;2023-11-19T09:45:13;99143.84;;;4.91;72.85
40864;BME280;26582;47.524;19.012;2023-11-19T09:47:42;99114.28;;;4.99;72.64
40864;BME280;26582;47.524;19.012;2023-11-19T09:50:12;99127.78;;;5.20;71.91
40864;BME280;26582;47.524;19.012;2023-11-19T09:52:41;99129.28;;;4.98;72.98
40864;BME280;26582;47.524;19.012;2023-11-19T09:55:08;99112.81;;;4.82;73.93
40864;BME280;26582;47.524;19.012;2023-11-19T09:57:38;99113.44;;;4.73;75.52
40864;BME280;26582;47.524;19.012;2023-11-19T10:00:06;99118.50;;;4.51;75.23
40864;BME280;26582;47.524;19.012;2023-11-19T10:02:34;99114.28;;;4.74;73.73
40864;BME280;26582;47.524;19.012;2023-11-19T10:05:04;99105.00;;;4.93;74.15
40864;BME280;26582;47.524;19.012;2023-11-19T10:07:32;99100.78;;;4.91;74.60
40864;BME280;26582;47.524;19.012;2023-11-19T10:10:01;99097.50;;;4.75;73.35
40864;BME280;26582;47.524;19.012;2023-11-19T10:12:29;99080.72;;;4.88;72.88
40864;BME280;26582;47.524;19.012;2023-11-19T10:14:57;99072.16;;;4.85;72.65
40864;BME280;26582;47.524;19.012;2023-11-19T10:17:27;99071.47;;;5.32;70.26
40864;BME280;26582;47.524;19.012;2023-11-19T10:19:54;99072.06;;;5.12;71.30
40864;BME280;26582;47.524;19.012;2023-11-19T10:22:22;99070.72;;;5.30;71.38
40864;BME280;26582;47.524;19.012;2023-11-19T10:24:49;99066.66;;;5.50;70.57
40864;BME280;26582;47.524;19.012;2023-11-19T10:27:18;99072.66;;;5.15;71.85
40864;BME280;26582;47.524;19.012;2023-11-19T10:29:45;99069.78;;;5.31;71.29
40864;BME280;26582;47.524;19.012;2023-11-19T10:32:13;99078.13;;;5.25;70.73
40864;BME280;26582;47.524;19.012;2023-11-19T10:34:40;99067.56;;;5.62;67.89
40864;BME280;26582;47.524;19.012;2023-11-19T10:37:07;99079.72;;;5.64;66.98
40864;BME280;26582;47.524;19.012;2023-11-19T10:39:51;99078.25;;;5.84;66.39
40864;BME280;26582;47.524;19.012;2023-11-19T10:42:21;99055.06;;;6.00;64.80
40864;BME280;26582;47.524;19.012;2023-11-19T10:44:48;99043.97;;;5.71;65.45
40864;BME280;26582;47.524;19.012;2023-11-19T10:47:15;99038.69;;;5.71;66.03
40864;BME280;26582;47.524;19.012;2023-11-19T10:49:43;99070.72;;;5.67;67.06
40864;BME280;26582;47.524;19.012;2023-11-19T10:52:11;99068.41;;;5.38;69.62
40864;BME280;26582;47.524;19.012;2023-11-19T10:54:44;99056.88;;;5.63;68.03
40864;BME280;26582;47.524;19.012;2023-11-19T10:57:12;99047.09;;;5.29;69.18
40864;BME280;26582;47.524;19.012;2023-11-19T10:59:44;99031.94;;;5.43;67.86
40864;BME280;26582;47.524;19.012;2023-11-19T11:02:16;99029.34;;;5.55;67.34
40864;BME280;26582;47.524;19.012;2023-11-19T11:04:46;99028.78;;;5.02;70.65
40864;BME280;26582;47.524;19.012;2023-11-19T11:07:15;99016.94;;;5.07;71.51
40864;BME280;26582;47.524;19.012;2023-11-19T11:09:42;99019.00;;;4.91;71.04
40864;BME280;26582;47.524;19.012;2023-11-19T11:12:12;99019.59;;;5.07;70.28
40864;BME280;26582;47.524;19.012;2023-11-19T11:14:39;99001.50;;;5.14;71.57
40864;BME280;26582;47.524;19.012;2023-11-19T11:17:11;99001.19;;;5.18;71.40
40864;BME280;26582;47.524;19.012;2023-11-19T11:19:41;98999.19;;;5.22;71.58
40864;BME280;26582;47.524;19.012;2023-11-19T11:22:09;98969.84;;;5.01;71.64
40864;BME280;26582;47.524;19.012;2023-11-19T11:24:52;99010.72;;;5.32;72.11
40864;BME280;26582;47.524;19.012;2023-11-19T11:27:48;99004.47;;;5.22;72.18
40864;BME280;26582;47.524;19.012;2023-11-19T11:30:26;99013.59;;;4.92;73.67
40864;BME280;26582;47.524;19.012;2023-11-19T11:33:06;99018.06;;;4.66;74.78
40864;BME280;26582;47.524;19.012;2023-11-19T11:35:46;99003.91;;;4.80;75.22
40864;BME280;26582;47.524;19.012;2023-11-19T11:38:21;98996.72;;;4.82;74.01
40864;BME280;26582;47.524;19.012;2023-11-19T11:41:15;98998.13;;;4.75;74.70
40864;BME280;26582;47.524;19.012;2023-11-19T11:43:47;98980.88;;;4.95;74.42
40864;BME280;26582;47.524;19.012;2023-11-19T11:49:26;98977.63;;;4.91;75.40
40864;BME280;26582;47.524;19.012;2023-11-19T11:52:02;98977.50;;;4.80;77.32
40864;BME280;26582;47.524;19.012;2023-11-19T11:54:32;98985.88;;;5.11;75.87
40864;BME280;26582;47.524;19.012;2023-11-19T11:57:06;98961.41;;;5.09;75.15
40864;BME280;26582;47.524;19.012;2023-11-19T11:59:51;98973.88;;;5.31;75.15
40864;BME280;26582;47.524;19.012;2023-11-19T12:02:19;98962.69;;;5.03;76.52
40864;BME280;26582;47.524;19.012;2023-11-19T12:04:49;98957.31;;;4.42;79.90
40864;BME280;26582;47.524;19.012;2023-11-19T12:07:18;98957.09;;;4.71;80.06
40864;BME280;26582;47.524;19.012;2023-11-19T12:09:51;98947.75;;;4.91;79.31
40864;BME280;26582;47.524;19.012;2023-11-19T12:12:21;98934.06;;;4.73;79.66
40864;BME280;26582;47.524;19.012;2023-11-19T12:15:05;98938.97;;;4.90;80.67
40864;BME280;26582;47.524;19.012;2023-11-19T12:17:43;98939.97;;;5.13;79.52
40864;BME280;26582;47.524;19.012;2023-11-19T12:20:16;98937.84;;;5.18;79.64
40864;BME280;26582;47.524;19.012;2023-11-19T12:22:44;98929.28;;;5.39;77.78
40864;BME280;26582;47.524;19.012;2023-11-19T12:25:13;98913.03;;;5.56;78.80
40864;BME280;26582;47.524;19.012;2023-11-19T12:27:40;98912.88;;;5.46;78.53
40864;BME280;26582;47.524;19.012;2023-11-19T12:30:08;98897.97;;;5.45;76.54
40864;BME280;26582;47.524;19.012;2023-11-19T12:32:39;98888.84;;;4.54;81.06
40864;BME280;26582;47.524;19.012;2023-11-19T12:35:07;98899.81;;;4.97;80.41
40864;BME280;26582;47.524;19.012;2023-11-19T12:37:42;98892.84;;;4.96;81.44
40864;BME280;26582;47.524;19.012;2023-11-19T12:40:14;98896.25;;;4.85;80.95
40864;BME280;26582;47.524;19.012;2023-11-19T12:42:41;98900.97;;;4.93;81.43
40864;BME280;26582;47.524;19.012;2023-11-19T12:45:08;98892.78;;;5.09;80.60
40864;BME280;26582;47.524;19.012;2023-11-19T12:47:36;98886.44;;;5.11;80.14
40864;BME280;26582;47.524;19.012;2023-11-19T12:50:04;98878.78;;;4.95;81.46
40864;BME280;26582;47.524;19.012;2023-11-19T12:52:31;98876.31;;;5.29;80.02
40864;BME280;26582;47.524;19.012;2023-11-19T12:54:59;98873.84;;;5.15;81.22
40864;BME280;26582;47.524;19.012;2023-11-19T12:57:36;98858.81;;;5.04;81.11
40864;BME280;26582;47.524;19.012;2023-11-19T13:00:04;98863.72;;;4.97;82.60
40864;BME280;26582;47.524;19.012;2023-11-19T13:02:48;98852.91;;;5.01;82.53
40864;BME280;26582;47.524;19.012;2023-11-19T13:05:23;98877.78;;;4.85;83.13
40864;BME280;26582;47.524;19.012;2023-11-19T13:07:51;98867.31;;;4.96;82.46
40864;BME280;26582;47.524;19.012;2023-11-19T13:10:25;98862.78;;;5.10;81.64